createdAt,value
2022-12-31T00:02:08.156Z,0.93
2022-12-31T00:04:38.130Z,0.73
2022-12-31T00:07:07.928Z,0.79
2022-12-31T00:09:37.784Z,0.79
2022-12-31T00:12:08.096Z,1.01
2022-12-31T00:14:37.995Z,1.66
2022-12-31T00:17:10.621Z,0.84
2022-12-31T00:19:40.635Z,0.85
2022-12-31T00:22:10.459Z,0.87
2022-12-31T00:24:40.313Z,0.76
2022-12-31T00:27:10.128Z,0.78
2022-12-31T00:29:39.992Z,0.94
2022-12-31T00:32:12.421Z,0.82
2022-12-31T00:34:42.377Z,0.78
2022-12-31T00:37:12.214Z,0.74
2022-12-31T00:39:42.053Z,0.69
2022-12-31T00:42:11.904Z,0.79
2022-12-31T00:44:41.772Z,0.73
2022-12-31T00:47:14.275Z,0.77
2022-12-31T00:49:44.082Z,0.81
2022-12-31T00:52:15.920Z,0.83
2022-12-31T00:54:45.728Z,0.98
2022-12-31T00:57:16.271Z,0.78
2022-12-31T00:59:46.159Z,0.89
2022-12-31T01:02:18.831Z,0.91
2022-12-31T01:04:48.752Z,0.91
2022-12-31T01:07:18.591Z,0.98
2022-12-31T01:09:48.443Z,1.06
2022-12-31T01:12:18.304Z,1.01
2022-12-31T01:14:48.170Z,0.95
2022-12-31T01:17:20.629Z,1.03
2022-12-31T01:19:50.553Z,1.12
2022-12-31T01:22:20.413Z,0.91
2022-12-31T01:24:50.299Z,1.06
2022-12-31T01:27:20.141Z,1.11
2022-12-31T01:29:50.027Z,0.92
2022-12-31T01:32:22.568Z,0.84
2022-12-31T01:34:52.450Z,0.96
2022-12-31T01:37:22.271Z,1.29
2022-12-31T01:39:52.573Z,1.57
2022-12-31T01:42:22.401Z,1.07
2022-12-31T01:44:57.789Z,0.91
2022-12-31T01:47:40.885Z,0.99
2022-12-31T01:50:16.788Z,0.95
2022-12-31T01:52:50.987Z,0.97
2022-12-31T01:55:25.791Z,0.94
2022-12-31T01:58:03.989Z,0.97
2022-12-31T02:00:34.760Z,0.96
2022-12-31T02:03:10.207Z,1.13
2022-12-31T02:05:48.886Z,0.96
2022-12-31T02:08:19.041Z,1.05
2022-12-31T02:10:48.905Z,0.89
2022-12-31T02:13:19.225Z,0.97
2022-12-31T02:16:03.177Z,1.02
2022-12-31T02:18:44.865Z,0.90
2022-12-31T02:21:47.814Z,0.99
2022-12-31T02:24:41.589Z,1.02
2022-12-31T02:27:16.119Z,0.91
2022-12-31T02:30:18.427Z,1.05
2022-12-31T02:33:10.981Z,0.95
2022-12-31T02:35:51.656Z,0.90
2022-12-31T02:38:26.198Z,1.11
2022-12-31T02:40:57.129Z,0.87
2022-12-31T02:43:27.230Z,1.01
2022-12-31T02:46:10.891Z,0.98
2022-12-31T02:48:56.503Z,0.96
2022-12-31T02:51:42.642Z,0.90
2022-12-31T02:54:29.181Z,0.91
2022-12-31T02:57:13.063Z,0.92
2022-12-31T03:00:07.236Z,0.87
2022-12-31T03:02:42.521Z,0.97
2022-12-31T03:05:18.776Z,0.90
2022-12-31T03:07:49.029Z,0.90
2022-12-31T03:10:19.580Z,0.90
2022-12-31T03:12:47.719Z,0.87
2022-12-31T03:15:23.991Z,0.84
2022-12-31T03:17:57.478Z,0.94
2022-12-31T03:20:45.843Z,1.04
2022-12-31T03:23:19.129Z,0.87
2022-12-31T03:25:47.041Z,0.89
2022-12-31T03:28:19.622Z,0.86
2022-12-31T03:30:52.097Z,0.89
2022-12-31T03:33:22.554Z,0.94
2022-12-31T03:35:56.441Z,0.84
2022-12-31T03:38:26.309Z,0.76
2022-12-31T03:40:56.163Z,0.76
2022-12-31T03:43:26.059Z,0.73
2022-12-31T03:45:59.830Z,0.80
2022-12-31T03:48:30.177Z,0.87
2022-12-31T03:51:02.591Z,0.80
2022-12-31T03:53:32.467Z,0.81
2022-12-31T03:56:02.344Z,0.73
2022-12-31T03:58:32.211Z,0.79
2022-12-31T04:01:02.147Z,0.79
2022-12-31T04:03:32.113Z,0.70
2022-12-31T04:06:04.575Z,0.70
2022-12-31T04:08:34.415Z,0.77
2022-12-31T04:11:04.584Z,0.82
2022-12-31T04:13:34.424Z,0.74
2022-12-31T04:16:04.334Z,0.84
2022-12-31T04:18:34.788Z,0.81
2022-12-31T04:21:08.511Z,0.78
2022-12-31T04:23:38.544Z,0.79
2022-12-31T04:26:08.451Z,0.84
2022-12-31T04:28:38.283Z,0.97
2022-12-31T04:31:08.455Z,0.85
2022-12-31T04:33:38.321Z,0.85
2022-12-31T04:36:11.727Z,0.98
2022-12-31T04:38:41.659Z,0.92
2022-12-31T04:41:21.123Z,0.93
2022-12-31T04:43:53.857Z,0.86
2022-12-31T04:46:25.637Z,0.97
2022-12-31T04:48:55.584Z,1.14
2022-12-31T04:51:29.494Z,1.08
2022-12-31T04:53:59.786Z,1.29
2022-12-31T04:56:30.590Z,1.09
2022-12-31T04:59:01.004Z,1.17
2022-12-31T05:01:31.238Z,1.16
2022-12-31T05:04:01.516Z,1.17
2022-12-31T05:06:34.151Z,1.14
2022-12-31T05:09:04.279Z,1.00
2022-12-31T05:11:35.719Z,1.16
2022-12-31T05:14:05.612Z,0.96
2022-12-31T05:16:35.505Z,0.84
2022-12-31T05:19:06.509Z,0.91
2022-12-31T05:21:39.199Z,0.78
2022-12-31T05:24:10.056Z,0.79
2022-12-31T05:26:39.906Z,0.69
2022-12-31T05:29:09.733Z,0.87
2022-12-31T05:31:39.558Z,0.77
2022-12-31T05:34:09.405Z,0.70
2022-12-31T05:36:41.798Z,0.69
2022-12-31T05:39:11.658Z,0.86
2022-12-31T05:41:41.474Z,0.90
2022-12-31T05:44:15.033Z,0.92
2022-12-31T05:46:44.870Z,0.83
2022-12-31T05:49:14.700Z,0.89
2022-12-31T05:51:47.470Z,0.87
2022-12-31T05:54:17.353Z,1.06
2022-12-31T05:56:47.283Z,0.99
2022-12-31T05:59:17.201Z,1.25
2022-12-31T06:01:47.121Z,1.29
2022-12-31T06:04:16.926Z,1.05
2022-12-31T06:06:49.358Z,1.03
2022-12-31T06:09:20.144Z,0.97
2022-12-31T06:11:50.196Z,1.07
2022-12-31T06:14:20.509Z,0.97
2022-12-31T06:16:50.431Z,0.97
2022-12-31T06:19:20.357Z,0.97
2022-12-31T06:21:52.902Z,1.16
2022-12-31T06:24:23.072Z,1.09
2022-12-31T06:26:52.893Z,1.07
2022-12-31T06:29:22.718Z,1.18
2022-12-31T06:31:52.547Z,1.09
2022-12-31T06:34:22.662Z,0.94
2022-12-31T06:36:55.138Z,1.08
2022-12-31T06:39:25.013Z,1.34
2022-12-31T06:41:54.872Z,1.33
2022-12-31T06:44:25.094Z,1.12
2022-12-31T06:46:55.143Z,1.06
2022-12-31T06:49:25.061Z,1.01
2022-12-31T06:51:57.561Z,1.15
2022-12-31T06:54:27.401Z,0.98
2022-12-31T06:56:57.995Z,1.21
2022-12-31T06:59:31.065Z,1.13
2022-12-31T07:02:24.372Z,0.96
2022-12-31T07:05:12.575Z,1.57
2022-12-31T07:07:59.819Z,1.19
2022-12-31T07:10:42.339Z,1.03
2022-12-31T07:13:30.996Z,1.18
2022-12-31T07:16:18.970Z,1.08
2022-12-31T07:18:55.952Z,1.14
2022-12-31T07:21:37.073Z,1.08
2022-12-31T07:24:13.464Z,1.18
2022-12-31T07:27:04.325Z,1.39
2022-12-31T07:29:48.803Z,0.94
2022-12-31T07:32:36.030Z,1.03
2022-12-31T07:35:19.220Z,1.37
2022-12-31T07:38:00.719Z,1.05
2022-12-31T07:40:52.705Z,1.31
2022-12-31T07:43:36.550Z,1.12
2022-12-31T07:46:16.503Z,1.13
2022-12-31T07:48:46.913Z,0.99
2022-12-31T07:51:17.636Z,1.04
2022-12-31T07:53:47.471Z,1.15
2022-12-31T07:56:20.071Z,1.21
2022-12-31T07:59:07.407Z,1.14
2022-12-31T08:01:49.860Z,1.29
2022-12-31T08:04:30.122Z,1.07
2022-12-31T08:07:13.722Z,1.14
2022-12-31T08:09:56.587Z,1.30
2022-12-31T08:12:34.034Z,1.18
2022-12-31T08:15:05.215Z,1.09
2022-12-31T08:17:35.457Z,1.19
2022-12-31T08:20:06.569Z,3.05
2022-12-31T08:23:02.879Z,1.36
2022-12-31T08:25:50.122Z,1.33
2022-12-31T08:28:38.128Z,1.10
2022-12-31T08:31:17.536Z,1.02
2022-12-31T08:34:02.107Z,1.36
2022-12-31T08:36:48.197Z,2.11
2022-12-31T08:39:36.392Z,1.29
2022-12-31T08:42:16.823Z,1.11
2022-12-31T08:44:59.746Z,1.02
2022-12-31T08:47:42.332Z,1.03
2022-12-31T08:50:17.878Z,1.08
2022-12-31T08:52:50.573Z,1.17
2022-12-31T08:55:22.103Z,1.17
2022-12-31T08:58:09.249Z,1.39
2022-12-31T09:00:43.575Z,1.09
2022-12-31T09:03:28.921Z,1.10
2022-12-31T09:06:09.344Z,1.12
2022-12-31T09:08:50.308Z,1.14
2022-12-31T09:11:26.332Z,1.13
2022-12-31T09:14:24.026Z,1.08
2022-12-31T09:17:06.689Z,1.17
2022-12-31T09:19:36.629Z,1.25
2022-12-31T09:22:07.140Z,0.90
2022-12-31T09:24:37.769Z,1.15
2022-12-31T09:27:18.276Z,1.10
2022-12-31T09:30:04.038Z,1.28
2022-12-31T09:32:58.581Z,1.13
2022-12-31T09:35:39.917Z,1.10
2022-12-31T09:38:21.453Z,1.05
2022-12-31T09:41:08.438Z,1.07
2022-12-31T09:44:17.228Z,1.92
2022-12-31T09:47:26.242Z,1.26
2022-12-31T09:50:29.166Z,1.00
2022-12-31T09:53:29.626Z,1.22
2022-12-31T09:56:07.072Z,1.04
2022-12-31T09:58:48.058Z,1.07
2022-12-31T10:01:41.118Z,1.41
2022-12-31T10:04:36.511Z,1.09
2022-12-31T10:07:29.079Z,1.05
2022-12-31T10:10:09.632Z,1.04
2022-12-31T10:13:09.404Z,1.02
2022-12-31T10:16:04.755Z,1.13
2022-12-31T10:18:49.426Z,1.03
2022-12-31T10:21:43.492Z,1.11
2022-12-31T10:24:58.475Z,1.31
2022-12-31T10:27:50.670Z,1.89
2022-12-31T10:30:23.499Z,1.20
2022-12-31T10:33:08.723Z,1.26
2022-12-31T10:35:45.920Z,0.97
2022-12-31T10:38:35.215Z,1.14
2022-12-31T10:41:49.783Z,1.50
2022-12-31T10:44:59.933Z,1.01
2022-12-31T10:48:02.197Z,1.09
2022-12-31T10:51:05.643Z,1.08
2022-12-31T10:54:15.141Z,0.96
2022-12-31T10:57:32.530Z,1.07
2022-12-31T11:00:14.282Z,1.01
2022-12-31T11:03:29.750Z,1.75
2022-12-31T11:06:40.974Z,1.06
2022-12-31T11:09:58.361Z,1.06
2022-12-31T11:12:59.886Z,0.93
2022-12-31T11:15:58.103Z,0.97
2022-12-31T11:18:42.927Z,1.06
2022-12-31T11:21:28.598Z,0.91
2022-12-31T11:24:12.816Z,0.94
2022-12-31T11:27:01.229Z,0.94
2022-12-31T11:29:51.566Z,0.92
2022-12-31T11:32:40.797Z,0.94
2022-12-31T11:35:28.342Z,1.34
2022-12-31T11:38:12.819Z,1.03
2022-12-31T11:40:54.144Z,1.04
2022-12-31T11:43:35.673Z,0.98
2022-12-31T11:46:27.641Z,1.04
2022-12-31T11:49:19.910Z,0.92
2022-12-31T11:52:13.523Z,0.90
2022-12-31T11:55:00.849Z,1.04
2022-12-31T11:57:37.628Z,0.87
2022-12-31T12:00:19.023Z,0.95
2022-12-31T12:02:51.735Z,1.10
2022-12-31T12:05:27.128Z,1.20
2022-12-31T12:07:57.314Z,1.05
2022-12-31T12:10:36.004Z,0.98
2022-12-31T12:13:16.128Z,0.86
2022-12-31T12:15:52.534Z,0.92
2022-12-31T12:18:43.011Z,0.92
2022-12-31T12:21:19.073Z,1.05
2022-12-31T12:23:59.167Z,0.85
2022-12-31T12:26:32.542Z,1.11
2022-12-31T12:29:11.128Z,0.92
2022-12-31T12:31:41.959Z,1.18
2022-12-31T12:34:26.568Z,0.77
2022-12-31T12:36:59.848Z,0.91
2022-12-31T12:39:32.618Z,0.94
2022-12-31T12:42:07.128Z,0.88
2022-12-31T12:44:38.285Z,1.62
2022-12-31T12:47:11.139Z,1.78
2022-12-31T12:49:44.460Z,0.93
2022-12-31T12:52:47.234Z,0.83
2022-12-31T12:55:28.381Z,0.89
2022-12-31T12:58:19.039Z,0.85
2022-12-31T13:01:01.476Z,1.24
2022-12-31T13:07:22.630Z,0.88
2022-12-31T13:10:15.103Z,1.08
2022-12-31T13:15:55.105Z,0.93
2022-12-31T13:18:41.288Z,0.91
2022-12-31T13:21:32.688Z,0.77
2022-12-31T13:24:15.159Z,0.92
2022-12-31T13:26:55.472Z,0.88
2022-12-31T13:29:32.723Z,0.73
2022-12-31T13:32:08.299Z,0.88
2022-12-31T13:34:44.528Z,1.08
2022-12-31T13:37:27.377Z,0.82
2022-12-31T13:40:04.480Z,1.09
2022-12-31T13:42:46.518Z,0.96
2022-12-31T13:45:25.315Z,1.03
2022-12-31T13:48:00.614Z,1.05
2022-12-31T13:50:39.132Z,2.17
2022-12-31T13:53:20.405Z,1.66
2022-12-31T13:56:02.110Z,1.04
2022-12-31T13:58:42.641Z,0.99
2022-12-31T14:01:19.143Z,1.12
2022-12-31T14:03:59.574Z,1.24
2022-12-31T14:06:37.004Z,1.07
2022-12-31T14:09:09.373Z,1.07
2022-12-31T14:12:00.983Z,1.03
2022-12-31T14:14:45.966Z,0.99
2022-12-31T14:17:27.065Z,0.98
2022-12-31T14:20:09.274Z,1.00
2022-12-31T14:22:50.347Z,1.15
2022-12-31T14:25:26.619Z,2.14
2022-12-31T14:27:59.723Z,1.81
2022-12-31T14:30:38.992Z,1.10
2022-12-31T14:33:37.429Z,1.20
2022-12-31T14:36:26.671Z,2.40
2022-12-31T14:39:20.546Z,1.15
2022-12-31T14:42:05.353Z,1.24
2022-12-31T14:44:50.971Z,1.10
2022-12-31T14:47:39.640Z,0.98
2022-12-31T14:50:15.503Z,1.21
2022-12-31T14:52:57.260Z,1.18
2022-12-31T14:55:31.190Z,1.15
2022-12-31T14:58:27.764Z,1.06
2022-12-31T15:00:58.551Z,2.34
2022-12-31T15:03:44.744Z,1.54
2022-12-31T15:06:39.170Z,1.18
2022-12-31T15:09:22.853Z,1.16
2022-12-31T15:12:18.386Z,1.02
2022-12-31T15:15:18.464Z,1.20
2022-12-31T15:18:02.729Z,1.25
2022-12-31T15:21:15.196Z,1.08
2022-12-31T15:23:46.923Z,1.18
2022-12-31T15:26:25.648Z,1.23
2022-12-31T15:29:02.685Z,1.60
2022-12-31T15:31:35.862Z,1.46
2022-12-31T15:34:08.284Z,1.50
2022-12-31T15:36:54.050Z,1.58
2022-12-31T15:39:44.584Z,1.14
2022-12-31T15:42:38.605Z,4.30
2022-12-31T15:45:18.857Z,2.37
2022-12-31T15:47:53.302Z,1.46
2022-12-31T15:50:25.793Z,1.53
2022-12-31T15:53:00.785Z,2.36
2022-12-31T15:55:37.651Z,1.22
2022-12-31T15:58:14.033Z,1.08
2022-12-31T16:01:00.101Z,1.11
2022-12-31T16:03:33.641Z,1.15
2022-12-31T16:06:07.443Z,1.21
2022-12-31T16:08:41.484Z,1.18
2022-12-31T16:11:12.955Z,1.06
2022-12-31T16:13:46.926Z,1.41
2022-12-31T16:16:25.551Z,3.00
2022-12-31T16:18:56.284Z,2.04
2022-12-31T16:21:32.797Z,1.95
2022-12-31T16:24:07.884Z,2.38
2022-12-31T16:26:46.967Z,4.09
2022-12-31T16:29:18.937Z,4.25
2022-12-31T16:31:51.493Z,5.62
2022-12-31T16:34:24.130Z,3.00
2022-12-31T16:37:02.300Z,3.05
2022-12-31T16:39:37.541Z,2.94
2022-12-31T16:42:19.444Z,4.29
2022-12-31T16:44:50.236Z,3.65
2022-12-31T16:47:25.201Z,3.33
2022-12-31T16:50:04.468Z,2.93
2022-12-31T16:52:39.648Z,3.54
2022-12-31T16:55:20.255Z,5.92
2022-12-31T16:57:55.947Z,6.06
2022-12-31T17:00:29.669Z,3.03
2022-12-31T17:03:10.231Z,2.92
2022-12-31T17:06:04.838Z,3.17
2022-12-31T17:08:45.092Z,2.62
2022-12-31T17:11:34.368Z,5.44
2022-12-31T17:14:15.470Z,4.05
2022-12-31T17:17:03.201Z,1.91
2022-12-31T17:19:46.426Z,2.90
2022-12-31T17:22:34.259Z,2.46
2022-12-31T17:25:08.120Z,2.84
2022-12-31T17:27:40.808Z,3.24
2022-12-31T17:30:41.167Z,3.66
2022-12-31T17:33:31.359Z,8.12
2022-12-31T17:36:24.806Z,6.30
2022-12-31T17:38:54.805Z,5.05
2022-12-31T17:41:30.257Z,5.40
2022-12-31T17:44:05.644Z,4.14
2022-12-31T17:46:45.493Z,3.96
2022-12-31T17:49:22.133Z,7.31
2022-12-31T17:51:52.586Z,4.74
2022-12-31T17:54:28.747Z,4.35
2022-12-31T18:08:01.237Z,3.20
2022-12-31T18:10:37.457Z,3.18
2022-12-31T18:13:10.905Z,2.91
2022-12-31T18:15:43.624Z,3.56
2022-12-31T18:18:25.350Z,2.67
2022-12-31T18:20:59.182Z,2.50
2022-12-31T18:23:31.937Z,2.57
2022-12-31T18:26:01.803Z,2.75
2022-12-31T18:28:31.985Z,4.03
2022-12-31T18:31:04.598Z,3.54
2022-12-31T18:33:34.610Z,3.50
2022-12-31T18:36:09.145Z,3.45
2022-12-31T18:38:40.803Z,3.69
2022-12-31T18:41:19.537Z,4.72
2022-12-31T18:43:50.260Z,5.16
2022-12-31T18:46:25.539Z,4.05
2022-12-31T18:48:55.461Z,4.88
2022-12-31T18:51:32.157Z,5.24
2022-12-31T18:54:02.594Z,4.75
2022-12-31T18:56:32.608Z,5.00
2022-12-31T18:59:02.594Z,6.38
2022-12-31T19:01:37.634Z,7.61
2022-12-31T19:04:18.717Z,9.64
2022-12-31T19:06:52.402Z,5.84
2022-12-31T19:12:15.622Z,8.53
2022-12-31T19:14:45.980Z,12.52
2022-12-31T19:17:18.519Z,10.37
2022-12-31T19:19:48.367Z,6.27
2022-12-31T19:22:18.480Z,8.64
2022-12-31T19:24:48.348Z,6.76
2022-12-31T19:27:18.308Z,4.81
2022-12-31T19:29:48.150Z,7.78
2022-12-31T19:32:20.773Z,12.33
2022-12-31T19:34:50.648Z,13.00
2022-12-31T19:37:20.500Z,14.55
2022-12-31T19:39:51.506Z,11.01
2022-12-31T19:42:21.559Z,13.26
2022-12-31T19:44:51.440Z,14.86
2022-12-31T19:47:23.955Z,12.14
2022-12-31T19:50:15.436Z,5.75
2022-12-31T19:52:46.948Z,4.01
2022-12-31T19:55:19.435Z,5.30
2022-12-31T19:57:49.901Z,3.96
2022-12-31T20:00:21.553Z,3.57
2022-12-31T20:02:54.182Z,3.50
2022-12-31T20:05:24.276Z,3.63
2022-12-31T20:07:54.169Z,3.56
2022-12-31T20:10:24.128Z,3.38
2022-12-31T20:12:53.990Z,3.38
2022-12-31T20:15:23.882Z,3.23
2022-12-31T20:17:57.563Z,3.48
2022-12-31T20:20:29.128Z,4.02
2022-12-31T20:22:59.800Z,4.30
2022-12-31T20:25:29.709Z,8.28
2022-12-31T20:27:59.621Z,8.49
2022-12-31T20:30:29.516Z,9.40
2022-12-31T20:33:02.022Z,8.57
2022-12-31T20:35:31.836Z,11.30
2022-12-31T20:38:01.800Z,10.56
2022-12-31T20:40:31.710Z,10.79
2022-12-31T20:43:01.649Z,10.83
2022-12-31T20:45:31.590Z,8.64
2022-12-31T20:48:04.061Z,8.75
2022-12-31T20:50:33.906Z,8.82
2022-12-31T20:53:03.889Z,9.33
2022-12-31T20:55:33.772Z,8.51
2022-12-31T20:58:04.250Z,7.71
2022-12-31T21:00:35.154Z,5.91
2022-12-31T21:03:23.787Z,6.55
2022-12-31T21:05:57.906Z,6.48
2022-12-31T21:08:34.344Z,6.37
2022-12-31T21:11:25.203Z,4.72
2022-12-31T21:13:52.778Z,4.13
2022-12-31T21:16:22.828Z,4.38
2022-12-31T21:18:55.518Z,4.41
2022-12-31T21:21:26.462Z,3.88
2022-12-31T21:23:56.440Z,3.75
2022-12-31T21:26:26.290Z,3.38
2022-12-31T21:28:56.401Z,3.57
2022-12-31T21:31:26.519Z,4.94
2022-12-31T21:33:59.238Z,9.81
2022-12-31T21:36:29.210Z,8.38
2022-12-31T21:38:59.151Z,6.33
2022-12-31T21:41:41.493Z,5.60
2022-12-31T21:44:11.451Z,4.38
2022-12-31T21:47:00.879Z,7.09
2022-12-31T21:49:33.846Z,8.21
2022-12-31T21:52:16.135Z,8.21
2022-12-31T21:54:58.462Z,9.03
2022-12-31T21:57:28.352Z,5.46
2022-12-31T22:00:40.251Z,5.76
2022-12-31T22:03:13.428Z,5.31
2022-12-31T22:05:54.433Z,9.01
2022-12-31T22:08:25.656Z,10.03
2022-12-31T22:10:55.514Z,7.24
2022-12-31T22:13:26.515Z,8.22
2022-12-31T22:16:04.387Z,7.91
2022-12-31T22:18:38.859Z,8.49
2022-12-31T22:21:18.987Z,11.48
2022-12-31T22:23:50.777Z,8.53
2022-12-31T22:26:23.527Z,6.94
2022-12-31T22:28:58.992Z,6.28
2022-12-31T22:31:30.723Z,6.02
2022-12-31T22:34:02.075Z,5.01
2022-12-31T22:36:34.632Z,4.24
2022-12-31T22:39:04.500Z,6.46
2022-12-31T22:41:34.968Z,6.26
2022-12-31T22:44:05.168Z,6.16
2022-12-31T22:46:35.760Z,7.27
2022-12-31T22:49:07.421Z,7.34
2022-12-31T22:51:57.699Z,9.89
2022-12-31T22:54:28.779Z,8.01
2022-12-31T22:56:58.716Z,10.38
2022-12-31T22:59:28.714Z,11.58
2022-12-31T23:01:58.743Z,13.29
2022-12-31T23:04:28.974Z,43.21
2022-12-31T23:07:01.947Z,51.12
2022-12-31T23:09:44.495Z,66.27
2022-12-31T23:12:14.402Z,62.62
2022-12-31T23:14:56.843Z,52.00
2022-12-31T23:17:42.328Z,45.27
2022-12-31T23:20:28.781Z,55.67
2022-12-31T23:23:11.620Z,48.01
2022-12-31T23:25:44.345Z,50.48
2022-12-31T23:28:18.173Z,47.99
2022-12-31T23:30:48.187Z,43.03
2022-12-31T23:33:20.190Z,32.01
2022-12-31T23:35:50.430Z,25.93
2022-12-31T23:38:22.996Z,23.79
2022-12-31T23:40:54.236Z,21.61
2022-12-31T23:43:25.250Z,22.02
2022-12-31T23:45:56.086Z,20.99
2022-12-31T23:48:26.059Z,21.87
2022-12-31T23:50:56.026Z,22.41
2022-12-31T23:53:28.594Z,26.34
2022-12-31T23:55:58.906Z,28.75
2022-12-31T23:58:28.845Z,31.89
